Time;durP1;ratioP1;P1;durP2;ratioP2;P2;SDS_P1;SDS_P2;PMS_P1;PMS_P2;Temp;Humidity;BMP_temperature;BMP_pressure;BME280_temperature;BME280_humidity;BME280_pressure;Samples;Min_cycle;Max_cycle;Signal;HPM_P1;HPM_P2
2023/07/10 00:19:29;;;;;;;21.05;7.07;;;19.70;99.90;;;;;;4215413;28;20123;-85
2023/07/10 00:21:30;;;;;;;14.05;5.47;;;19.70;99.90;;;;;;4215790;28;20044;-85
2023/07/10 00:23:31;;;;;;;18.10;6.13;;;19.80;99.90;;;;;;4231381;28;20044;-85
2023/07/10 00:25:32;;;;;;;17.80;5.63;;;19.70;99.90;;;;;;4216000;28;20098;-85
2023/07/10 00:27:33;;;;;;;10.88;6.10;;;19.70;99.90;;;;;;4231472;28;20053;-86
2023/07/10 00:29:33;;;;;;;19.10;6.07;;;19.70;99.90;;;;;;4215412;28;20040;-85
2023/07/10 00:31:34;;;;;;;18.38;6.20;;;19.70;99.90;;;;;;4215837;28;20431;-86
2023/07/10 00:33:35;;;;;;;18.50;5.82;;;19.80;99.90;;;;;;4213411;28;20043;-85
2023/07/10 00:35:36;;;;;;;19.92;6.97;;;19.70;99.90;;;;;;4206661;28;20127;-85
2023/07/10 00:37:37;;;;;;;12.40;6.30;;;19.80;99.90;;;;;;4216681;28;20047;-86
2023/07/10 00:39:38;;;;;;;14.48;5.90;;;19.80;99.90;;;;;;4200810;28;20041;-85
2023/07/10 00:41:40;;;;;;;15.02;6.03;;;19.70;99.90;;;;;;4217344;28;20091;-86
2023/07/10 00:43:56;;;;;;;14.05;6.82;;;19.70;99.90;;;;;;4217704;28;20044;-86
2023/07/10 00:46:01;;;;;;;13.93;6.50;;;19.70;99.90;;;;;;4204337;28;20115;-86
2023/07/10 00:48:30;;;;;;;13.63;7.35;;;19.70;99.90;;;;;;4219105;28;20127;-86
2023/07/10 00:50:37;;;;;;;15.85;6.82;;;19.50;99.90;;;;;;4201910;28;20076;-86
2023/07/10 00:52:47;;;;;;;10.77;6.75;;;19.60;99.90;;;;;;4213267;28;20109;-86
2023/07/10 00:54:52;;;;;;;16.67;7.97;;;19.40;99.90;;;;;;4219806;28;20408;-87
2023/07/10 00:56:55;;;;;;;20.77;9.27;;;19.60;99.90;;;;;;4233745;28;20067;-86
2023/07/10 00:58:56;;;;;;;18.98;9.55;;;19.60;99.90;;;;;;4216467;28;20055;-86
2023/07/10 01:01:00;;;;;;;25.35;11.05;;;19.60;99.90;;;;;;4218453;28;20111;-86
2023/07/10 01:03:01;;;;;;;26.65;10.68;;;19.60;99.90;;;;;;4234651;28;20172;-85
2023/07/10 01:05:04;;;;;;;29.83;12.20;;;19.50;99.90;;;;;;4218720;28;20513;-85
2023/07/10 01:07:07;;;;;;;23.88;11.35;;;19.50;99.90;;;;;;4217866;28;20106;-85
2023/07/10 01:09:08;;;;;;;25.60;10.45;;;19.50;99.90;;;;;;4203352;28;20056;-85
2023/07/10 01:11:09;;;;;;;23.10;12.13;;;19.50;99.90;;;;;;4200880;28;20045;-85
2023/07/10 01:13:11;;;;;;;28.52;11.95;;;19.50;99.90;;;;;;4201832;28;20032;-85
2023/07/10 01:15:13;;;;;;;22.50;12.40;;;19.40;99.90;;;;;;4201176;28;20045;-85
2023/07/10 01:17:15;;;;;;;30.25;12.70;;;19.40;99.90;;;;;;4201931;28;20052;-85
2023/07/10 01:19:21;;;;;;;28.95;12.45;;;19.40;99.90;;;;;;4200608;28;20044;-87
2023/07/10 01:21:27;;;;;;;24.75;11.95;;;19.30;99.90;;;;;;4201764;28;20139;-85
2023/07/10 01:23:27;;;;;;;32.58;11.93;;;19.30;99.90;;;;;;4202998;28;20560;-86
2023/07/10 01:25:31;;;;;;;28.48;11.75;;;19.30;99.90;;;;;;4214527;28;20044;-85
2023/07/10 01:27:32;;;;;;;19.50;11.90;;;19.30;99.90;;;;;;4219446;28;20047;-85
2023/07/10 01:29:43;;;;;;;25.08;12.18;;;19.30;99.90;;;;;;4220824;28;20396;-85
2023/07/10 01:31:46;;;;;;;22.10;11.07;;;19.30;99.90;;;;;;4219641;28;20124;-85
2023/07/10 01:33:52;;;;;;;18.75;10.95;;;19.00;99.90;;;;;;4219177;28;20039;-85
2023/07/10 01:35:58;;;;;;;26.45;11.40;;;19.20;99.90;;;;;;4219207;28;20423;-85
2023/07/10 01:38:00;;;;;;;19.50;10.95;;;19.20;99.90;;;;;;4218578;28;20044;-85
2023/07/10 01:40:01;;;;;;;19.33;10.07;;;19.20;99.90;;;;;;4234616;28;20134;-85
2023/07/10 01:42:02;;;;;;;18.25;10.13;;;19.20;99.90;;;;;;4218470;28;20047;-85
2023/07/10 01:44:21;;;;;;;22.65;10.57;;;19.10;99.90;;;;;;4211554;28;20043;-85
2023/07/10 01:46:24;;;;;;;20.58;10.50;;;19.20;99.90;;;;;;4217386;28;20451;-85
2023/07/10 01:48:28;;;;;;;18.80;10.13;;;19.20;99.90;;;;;;4217549;28;20044;-85
2023/07/10 01:50:29;;;;;;;20.80;10.52;;;19.20;99.90;;;;;;4218556;28;20400;-85
2023/07/10 01:52:30;;;;;;;20.02;9.85;;;19.20;99.90;;;;;;4217653;28;20040;-85
2023/07/10 01:54:31;;;;;;;18.02;9.18;;;19.20;99.90;;;;;;4218332;28;20403;-85
2023/07/10 01:56:33;;;;;;;15.18;8.70;;;19.20;99.90;;;;;;4216886;28;20052;-85
2023/07/10 01:58:33;;;;;;;20.00;9.40;;;19.10;99.90;;;;;;4233130;28;20043;-85
2023/07/10 02:00:34;;;;;;;19.60;10.18;;;19.10;99.90;;;;;;4217430;28;20555;-84
2023/07/10 02:02:37;;;;;;;21.73;9.35;;;19.10;99.90;;;;;;4212202;28;20036;-85
2023/07/10 02:04:37;;;;;;;20.80;10.10;;;19.10;99.90;;;;;;4216527;28;20127;-85
2023/07/10 02:06:39;;;;;;;20.98;9.20;;;19.10;99.90;;;;;;4217255;28;20392;-85
2023/07/10 02:08:40;;;;;;;19.27;9.70;;;19.00;99.90;;;;;;4233357;28;20523;-85
2023/07/10 02:10:41;;;;;;;22.50;10.45;;;19.00;99.90;;;;;;4200249;28;20048;-85
2023/07/10 02:12:41;;;;;;;20.83;9.75;;;19.00;99.90;;;;;;4217762;28;20039;-85
2023/07/10 02:14:42;;;;;;;22.63;11.00;;;19.00;99.90;;;;;;4217602;28;20040;-85
2023/07/10 02:16:43;;;;;;;21.38;10.52;;;18.90;99.90;;;;;;4217623;28;20396;-85
2023/07/10 02:18:44;;;;;;;27.23;11.10;;;18.90;99.90;;;;;;4211627;28;20058;-86
2023/07/10 02:20:45;;;;;;;21.65;9.70;;;18.90;99.90;;;;;;4184391;28;20084;-85
2023/07/10 02:22:46;;;;;;;21.70;11.15;;;18.90;99.90;;;;;;4201061;28;20045;-85
2023/07/10 02:24:46;;;;;;;20.55;10.50;;;18.80;99.90;;;;;;4200760;28;20044;-85
2023/07/10 02:26:47;;;;;;;25.77;11.27;;;18.80;99.90;;;;;;4198556;28;20050;-85
2023/07/10 02:28:48;;;;;;;23.23;11.40;;;18.80;99.90;;;;;;4182235;28;20421;-85
2023/07/10 02:30:49;;;;;;;19.42;11.50;;;18.80;99.90;;;;;;4198787;28;20049;-86
2023/07/10 02:32:49;;;;;;;20.27;10.63;;;18.80;99.90;;;;;;4215818;28;20171;-85
2023/07/10 02:34:50;;;;;;;22.65;11.00;;;18.80;99.90;;;;;;4198466;28;20113;-85
2023/07/10 02:36:51;;;;;;;21.48;10.70;;;18.80;99.90;;;;;;4215308;28;20412;-85
2023/07/10 02:38:52;;;;;;;19.75;9.95;;;18.80;99.90;;;;;;4203677;28;20409;-85
2023/07/10 02:40:52;;;;;;;28.35;9.82;;;18.70;99.90;;;;;;4218636;28;20047;-85
2023/07/10 02:42:53;;;;;;;21.75;11.80;;;18.70;99.90;;;;;;4232110;28;20109;-85
2023/07/10 02:44:54;;;;;;;22.83;10.55;;;18.70;99.90;;;;;;4216081;28;20510;-85
2023/07/10 02:46:55;;;;;;;19.30;10.80;;;18.70;99.90;;;;;;4215108;28;20048;-85
2023/07/10 02:48:55;;;;;;;16.25;10.65;;;18.70;99.90;;;;;;4217019;28;20054;-85
2023/07/10 02:50:56;;;;;;;19.65;11.23;;;18.70;99.90;;;;;;4217829;28;20403;-85
2023/07/10 02:52:57;;;;;;;21.83;9.93;;;18.70;99.90;;;;;;4216953;28;20400;-85
2023/07/10 02:54:58;;;;;;;18.25;9.80;;;18.70;99.90;;;;;;4214359;28;20040;-85
2023/07/10 02:56:59;;;;;;;22.33;10.93;;;18.70;99.90;;;;;;4195833;28;20524;-85
2023/07/10 02:59:02;;;;;;;17.30;9.55;;;18.70;99.90;;;;;;4218228;28;20071;-85
2023/07/10 03:01:04;;;;;;;17.45;9.40;;;18.70;99.90;;;;;;4199464;28;20053;-85
2023/07/10 03:03:04;;;;;;;20.95;9.27;;;18.70;99.90;;;;;;4217299;28;20048;-85
2023/07/10 03:05:06;;;;;;;15.98;8.88;;;18.70;99.90;;;;;;4231732;28;20472;-85
2023/07/10 03:07:06;;;;;;;21.50;9.85;;;18.80;99.90;;;;;;4214968;28;20040;-85
2023/07/10 03:09:07;;;;;;;17.40;8.63;;;18.80;99.90;;;;;;4216539;28;20044;-85
2023/07/10 03:11:11;;;;;;;18.73;8.98;;;18.70;99.90;;;;;;4215192;28;20039;-85
2023/07/10 03:13:12;;;;;;;16.90;9.15;;;18.70;99.90;;;;;;4202380;28;20408;-85
2023/07/10 03:15:14;;;;;;;16.10;8.30;;;18.70;99.90;;;;;;4197223;28;20052;-86
2023/07/10 03:17:16;;;;;;;19.48;8.23;;;18.50;99.90;;;;;;4213823;28;20035;-86
2023/07/10 03:19:17;;;;;;;16.80;9.02;;;18.70;99.90;;;;;;4214022;28;20048;-86
2023/07/10 03:21:17;;;;;;;16.10;7.95;;;18.70;99.90;;;;;;4198561;28;20501;-86
2023/07/10 03:23:18;;;;;;;19.13;7.97;;;18.60;99.90;;;;;;4197323;28;20145;-84
2023/07/10 03:25:19;;;;;;;12.52;7.72;;;18.60;99.90;;;;;;4197709;28;20048;-84
2023/07/10 03:27:20;;;;;;;14.18;7.95;;;18.70;99.90;;;;;;4198949;28;20507;-85
2023/07/10 03:29:21;;;;;;;16.35;8.57;;;18.40;99.90;;;;;;4197605;28;20102;-86
2023/07/10 03:31:21;;;;;;;14.10;7.53;;;18.60;99.90;;;;;;4201662;28;20089;-86
2023/07/10 03:33:23;;;;;;;12.63;6.75;;;18.60;99.90;;;;;;4213525;28;20044;-86
2023/07/10 03:35:24;;;;;;;11.98;7.35;;;18.60;99.90;;;;;;4231904;28;20051;-86
2023/07/10 03:37:27;;;;;;;11.75;6.93;;;18.60;99.90;;;;;;4199641;28;20048;-85
2023/07/10 03:39:27;;;;;;;16.80;7.35;;;18.60;99.90;;;;;;4214987;28;20087;-85
2023/07/10 03:41:29;;;;;;;13.88;7.78;;;18.60;99.90;;;;;;4217729;28;20051;-85
2023/07/10 03:43:30;;;;;;;12.75;6.78;;;18.70;99.90;;;;;;4231974;28;20115;-86
2023/07/10 03:45:31;;;;;;;11.75;7.10;;;18.70;99.90;;;;;;4199592;28;20107;-85
2023/07/10 03:47:32;;;;;;;10.50;7.28;;;18.70;99.90;;;;;;4215347;28;20052;-85
2023/07/10 03:49:33;;;;;;;14.98;6.75;;;18.60;99.90;;;;;;4211066;28;20038;-86
2023/07/10 03:51:35;;;;;;;12.05;6.75;;;18.60;99.90;;;;;;4231794;28;20131;-87
2023/07/10 03:53:36;;;;;;;12.20;6.50;;;18.60;99.90;;;;;;4217232;28;20096;-85
2023/07/10 03:55:46;;;;;;;9.68;6.03;;;18.60;99.90;;;;;;4198956;28;20137;-85
2023/07/10 03:57:46;;;;;;;12.48;6.22;;;18.60;99.90;;;;;;4215355;28;20115;-84
2023/07/10 03:59:47;;;;;;;11.40;5.60;;;18.60;99.90;;;;;;4231164;28;20436;-84
2023/07/10 04:01:51;;;;;;;11.90;5.72;;;18.60;99.90;;;;;;4215248;28;20354;-85
2023/07/10 04:03:52;;;;;;;13.32;5.90;;;18.50;99.90;;;;;;4215052;28;20572;-83
2023/07/10 04:05:56;;;;;;;9.02;5.18;;;18.50;99.90;;;;;;4215216;28;20040;-83
2023/07/10 04:07:57;;;;;;;13.50;5.85;;;18.50;99.90;;;;;;4202106;28;20044;-83
2023/07/10 04:09:58;;;;;;;10.45;5.00;;;18.50;99.90;;;;;;4202579;28;20044;-83
2023/07/10 04:11:59;;;;;;;9.90;5.93;;;18.50;99.90;;;;;;4216574;28;20542;-82
2023/07/10 04:13:59;;;;;;;10.93;6.25;;;18.60;99.90;;;;;;4202113;28;20044;-83
2023/07/10 04:16:03;;;;;;;10.50;5.70;;;18.70;99.90;;;;;;4200590;28;20492;-83
2023/07/10 04:18:03;;;;;;;9.32;4.85;;;18.60;99.90;;;;;;4202213;28;20136;-83
2023/07/10 04:20:06;;;;;;;9.35;6.03;;;18.60;99.90;;;;;;4217719;28;20048;-84
2023/07/10 04:22:07;;;;;;;13.27;5.50;;;18.60;99.90;;;;;;4202075;28;20041;-84
2023/07/10 04:24:09;;;;;;;12.88;6.20;;;18.60;99.90;;;;;;4202286;28;20489;-83
2023/07/10 04:26:24;;;;;;;10.32;6.25;;;18.60;99.90;;;;;;4225342;28;20048;-84
2023/07/10 04:28:25;;;;;;;9.73;5.63;;;18.60;99.90;;;;;;4219120;28;20040;-84
2023/07/10 04:30:25;;;;;;;13.00;6.40;;;18.60;99.90;;;;;;4234171;28;20086;-83
2023/07/10 04:32:26;;;;;;;11.32;5.22;;;18.60;99.90;;;;;;4216813;28;20048;-83
2023/07/10 04:34:27;;;;;;;11.85;5.35;;;18.60;99.90;;;;;;4216875;28;20443;-83
2023/07/10 04:36:28;;;;;;;9.38;4.85;;;18.60;99.90;;;;;;4217038;28;20135;-83
2023/07/10 04:38:29;;;;;;;8.57;4.63;;;18.60;99.90;;;;;;4234247;28;20499;-83
2023/07/10 04:40:30;;;;;;;10.05;5.28;;;18.60;99.90;;;;;;4216468;28;20416;-83
2023/07/10 04:42:30;;;;;;;9.25;4.90;;;18.60;99.90;;;;;;4209753;28;20423;-83
2023/07/10 04:44:31;;;;;;;11.23;4.68;;;18.60;99.90;;;;;;4217065;28;20052;-84
2023/07/10 04:46:32;;;;;;;9.10;4.78;;;18.60;99.90;;;;;;4201815;28;20523;-83
2023/07/10 04:48:33;;;;;;;8.93;4.13;;;18.60;99.90;;;;;;4216369;28;20048;-83
2023/07/10 04:50:35;;;;;;;9.30;5.40;;;18.60;99.90;;;;;;4201532;28;20048;-84
2023/07/10 04:52:35;;;;;;;8.80;4.25;;;18.70;99.90;;;;;;4199729;28;20191;-83
2023/07/10 04:54:36;;;;;;;11.00;3.70;;;18.60;99.90;;;;;;4199048;28;20178;-83
2023/07/10 04:56:37;;;;;;;8.75;3.15;;;18.60;99.90;;;;;;4202487;28;20424;-84
2023/07/10 04:58:48;;;;;;;7.80;3.78;;;18.60;99.90;;;;;;4203472;28;20087;-84
2023/07/10 05:00:54;;;;;;;7.80;2.63;;;17.90;99.90;;;;;;4212759;28;20045;-84
2023/07/10 05:02:55;;;;;;;5.82;2.88;;;18.60;99.90;;;;;;4201751;28;20408;-84
2023/07/10 05:04:56;;;;;;;8.50;3.00;;;18.60;99.90;;;;;;4199867;28;20054;-84
2023/07/10 05:07:02;;;;;;;6.75;2.38;;;18.50;99.90;;;;;;4200633;28;20548;-83
2023/07/10 05:09:04;;;;;;;5.05;2.67;;;18.50;99.90;;;;;;4201884;28;20428;-84
2023/07/10 05:11:04;;;;;;;7.35;2.88;;;18.50;99.90;;;;;;4201466;28;20516;-84
2023/07/10 05:13:05;;;;;;;8.32;2.78;;;18.50;99.90;;;;;;4201027;28;20077;-83
2023/07/10 05:15:06;;;;;;;7.90;2.45;;;18.50;99.90;;;;;;4201263;28;20403;-84
2023/07/10 05:17:07;;;;;;;3.67;2.45;;;18.50;99.90;;;;;;4202030;28;20120;-83
2023/07/10 05:19:08;;;;;;;8.30;2.85;;;18.50;99.90;;;;;;4201897;28;20037;-83
2023/07/10 05:21:12;;;;;;;5.15;2.53;;;18.50;99.90;;;;;;4218550;28;20119;-83
2023/07/10 05:23:14;;;;;;;4.40;2.63;;;18.50;99.90;;;;;;4217992;28;20097;-84
2023/07/10 05:25:16;;;;;;;4.85;2.80;;;18.50;99.90;;;;;;4217014;28;20117;-83
2023/07/10 05:27:17;;;;;;;7.40;2.70;;;18.60;99.90;;;;;;4217695;28;20439;-83
2023/07/10 05:29:17;;;;;;;6.72;3.00;;;18.60;99.90;;;;;;4233401;28;20052;-83
2023/07/10 05:31:18;;;;;;;7.55;3.60;;;18.70;99.90;;;;;;4216347;28;20520;-83
2023/07/10 05:33:19;;;;;;;10.85;3.33;;;18.70;99.90;;;;;;4217355;28;20110;-84
2023/07/10 05:35:22;;;;;;;13.75;3.88;;;18.80;99.90;;;;;;4226539;28;20119;-84
2023/07/10 05:37:23;;;;;;;7.22;3.33;;;18.80;99.90;;;;;;4200036;28;20048;-83
2023/07/10 05:39:24;;;;;;;9.85;3.47;;;18.90;99.90;;;;;;4199828;28;20052;-83
2023/07/10 05:41:25;;;;;;;8.32;3.95;;;18.90;99.90;;;;;;4199803;28;20053;-83
2023/07/10 05:43:29;;;;;;;12.90;4.07;;;19.00;99.90;;;;;;4216507;28;20048;-83
2023/07/10 05:45:30;;;;;;;9.18;3.58;;;19.10;99.90;;;;;;4200041;28;20097;-83
2023/07/10 05:47:30;;;;;;;6.07;3.22;;;19.10;99.90;;;;;;4199331;28;20076;-83
2023/07/10 05:49:31;;;;;;;11.20;3.40;;;19.10;99.90;;;;;;4200276;28;20044;-83
2023/07/10 05:51:33;;;;;;;9.70;3.42;;;19.20;99.90;;;;;;4200758;28;20045;-83
2023/07/10 05:53:33;;;;;;;6.88;3.58;;;19.20;99.90;;;;;;4203755;28;20094;-88
2023/07/10 05:55:34;;;;;;;6.45;3.40;;;19.40;99.90;;;;;;4190483;28;20049;-87
2023/07/10 05:57:36;;;;;;;6.72;3.22;;;19.40;99.90;;;;;;4200988;28;20401;-89
2023/07/10 05:59:37;;;;;;;5.32;3.05;;;19.40;99.90;;;;;;4216762;28;20027;-89
2023/07/10 06:01:43;;;;;;;7.25;3.33;;;19.50;99.90;;;;;;4201028;28;20080;-89
2023/07/10 06:03:44;;;;;;;11.25;3.97;;;19.50;99.90;;;;;;4201209;28;20508;-89
2023/07/10 06:05:58;;;;;;;8.73;3.17;;;19.50;99.90;;;;;;4200893;28;20055;-89
2023/07/10 06:07:59;;;;;;;6.47;2.97;;;19.60;99.90;;;;;;4200255;28;20048;-90
2023/07/10 06:10:01;;;;;;;7.20;3.00;;;19.60;99.90;;;;;;4183741;28;20124;-90
2023/07/10 06:12:03;;;;;;;5.25;2.80;;;19.60;99.90;;;;;;4201043;28;20036;-90
2023/07/10 06:14:04;;;;;;;5.20;2.97;;;19.50;99.90;;;;;;4225010;28;20047;-90
2023/07/10 06:16:11;;;;;;;5.18;2.42;;;19.60;99.90;;;;;;4233683;28;20035;-90
2023/07/10 06:18:17;;;;;;;6.43;2.92;;;19.60;99.90;;;;;;4199246;28;20481;-90
2023/07/10 06:20:20;;;;;;;7.43;2.63;;;19.60;99.90;;;;;;4200634;28;20051;-90
2023/07/10 06:22:21;;;;;;;7.63;3.42;;;19.70;99.90;;;;;;4216730;28;20048;-90
2023/07/10 06:24:22;;;;;;;7.78;2.60;;;19.60;99.90;;;;;;4200411;28;20118;-90
2023/07/10 06:26:23;;;;;;;7.63;3.15;;;19.70;99.90;;;;;;4219461;28;20037;-90
2023/07/10 06:28:26;;;;;;;8.57;2.60;;;19.70;99.90;;;;;;4199090;28;20049;-90
2023/07/10 06:30:30;;;;;;;7.97;2.63;;;19.70;99.90;;;;;;4214684;28;20036;-90
2023/07/10 06:32:40;;;;;;;5.80;2.65;;;19.80;99.90;;;;;;4218938;28;20086;-89
2023/07/10 06:34:46;;;;;;;6.75;2.67;;;19.80;99.90;;;;;;4218776;28;20040;-89
2023/07/10 06:36:47;;;;;;;10.32;2.72;;;19.90;99.90;;;;;;4200178;28;20056;-90
2023/07/10 06:38:50;;;;;;;6.53;2.10;;;19.90;99.90;;;;;;4199883;28;20168;-89
2023/07/10 06:40:53;;;;;;;10.00;3.28;;;19.80;99.90;;;;;;4201771;28;20049;-89
2023/07/10 06:42:54;;;;;;;6.35;2.58;;;19.80;99.90;;;;;;4199540;28;20049;-90
2023/07/10 06:44:58;;;;;;;5.70;2.40;;;19.70;99.90;;;;;;4199349;28;20048;-90
2023/07/10 06:46:59;;;;;;;8.13;2.80;;;19.70;99.90;;;;;;4206837;28;20032;-89
2023/07/10 06:49:00;;;;;;;7.35;2.92;;;19.80;99.90;;;;;;4219546;28;20070;-90
2023/07/10 06:51:01;;;;;;;7.70;2.10;;;19.80;99.90;;;;;;4234516;28;20051;-90
2023/07/10 06:53:06;;;;;;;6.53;2.63;;;19.80;99.90;;;;;;4198893;28;20048;-90
2023/07/10 06:55:11;;;;;;;3.35;1.83;;;19.60;99.90;;;;;;4198992;28;20049;-89
2023/07/10 06:57:12;;;;;;;7.72;2.25;;;20.00;99.90;;;;;;4198744;28;20057;-89
2023/07/10 06:59:13;;;;;;;4.97;2.38;;;20.00;99.90;;;;;;4199204;28;20131;-90
2023/07/10 07:01:15;;;;;;;4.55;2.25;;;20.20;99.90;;;;;;4204185;28;20075;-88
2023/07/10 07:03:16;;;;;;;7.15;2.03;;;20.30;99.90;;;;;;4217115;28;20048;-89
2023/07/10 07:05:17;;;;;;;5.75;2.42;;;20.30;99.90;;;;;;4200719;28;20453;-88
2023/07/10 07:07:18;;;;;;;5.53;1.85;;;20.30;99.90;;;;;;4199784;28;20149;-88
2023/07/10 07:09:19;;;;;;;7.00;2.10;;;20.40;99.90;;;;;;4219040;28;20059;-88
2023/07/10 07:11:23;;;;;;;7.18;2.30;;;20.50;99.90;;;;;;4218768;28;20048;-88
2023/07/10 07:13:24;;;;;;;11.75;2.47;;;20.60;99.90;;;;;;4216373;28;20048;-88
2023/07/10 07:15:25;;;;;;;3.80;1.63;;;20.60;99.90;;;;;;4217475;28;20059;-88
2023/07/10 07:17:26;;;;;;;4.88;1.88;;;20.70;99.90;;;;;;4215844;28;20451;-89
2023/07/10 07:19:33;;;;;;;9.82;2.25;;;20.90;99.90;;;;;;4217451;28;20052;-88
2023/07/10 07:21:34;;;;;;;4.72;1.90;;;21.00;99.90;;;;;;4199401;28;20044;-89
2023/07/10 07:23:34;;;;;;;4.82;2.05;;;21.00;99.90;;;;;;4201232;28;20079;-88
2023/07/10 07:25:36;;;;;;;6.47;2.15;;;21.00;99.90;;;;;;4199264;28;20044;-89
2023/07/10 07:27:37;;;;;;;5.60;1.73;;;21.00;99.90;;;;;;4216128;28;20044;-88
2023/07/10 07:29:38;;;;;;;5.50;1.63;;;21.10;99.90;;;;;;4202104;28;20512;-90
2023/07/10 07:31:39;;;;;;;8.65;2.30;;;21.20;99.90;;;;;;4215271;28;20040;-89
2023/07/10 07:33:40;;;;;;;8.80;3.67;;;21.30;99.90;;;;;;4217894;28;20032;-89
2023/07/10 07:35:41;;;;;;;6.07;1.50;;;21.30;99.90;;;;;;4199002;28;20052;-89
2023/07/10 07:37:43;;;;;;;4.97;1.70;;;21.40;99.90;;;;;;4217301;28;20059;-90
2023/07/10 07:39:43;;;;;;;7.07;1.90;;;21.30;99.90;;;;;;4199750;28;20113;-90
2023/07/10 07:41:44;;;;;;;8.68;1.98;;;21.50;99.90;;;;;;4217416;28;20063;-88
2023/07/10 07:43:45;;;;;;;7.10;1.83;;;21.50;99.90;;;;;;4219790;28;20048;-89
2023/07/10 07:45:53;;;;;;;7.35;1.75;;;21.60;99.90;;;;;;4218254;28;20161;-90
2023/07/10 07:47:54;;;;;;;4.63;1.65;;;21.70;99.90;;;;;;4216351;28;20048;-89
2023/07/10 07:49:58;;;;;;;8.68;2.00;;;21.90;99.90;;;;;;4216728;28;20040;-90
2023/07/10 07:51:58;;;;;;;4.43;2.25;;;22.10;99.90;;;;;;4201154;28;20543;-89
2023/07/10 07:54:10;;;;;;;3.50;1.50;;;22.10;99.90;;;;;;4215773;28;20036;-89
2023/07/10 07:56:11;;;;;;;6.72;1.80;;;21.90;99.90;;;;;;4233041;28;20055;-89
2023/07/10 07:58:11;;;;;;;12.85;2.13;;;21.80;99.90;;;;;;4217860;28;20048;-89
2023/07/10 08:00:13;;;;;;;7.50;1.70;;;21.80;99.90;;;;;;4217352;28;20078;-88
2023/07/10 08:02:14;;;;;;;7.10;1.70;;;22.00;99.90;;;;;;4221216;28;20100;-88
2023/07/10 08:04:17;;;;;;;7.07;2.00;;;22.10;99.90;;;;;;4233765;28;20506;-90
2023/07/10 08:06:18;;;;;;;6.68;2.25;;;22.30;99.90;;;;;;4202067;28;20036;-89
2023/07/10 08:08:21;;;;;;;5.65;1.42;;;22.40;99.90;;;;;;4217466;28;20047;-90
2023/07/10 08:10:35;;;;;;;7.03;2.00;;;22.50;99.90;;;;;;4233573;28;20097;-90
2023/07/10 08:12:38;;;;;;;8.18;2.13;;;22.40;99.90;;;;;;4219194;28;20035;-91
2023/07/10 08:14:39;;;;;;;7.68;1.88;;;22.50;99.90;;;;;;4217821;28;20483;-91
2023/07/10 08:16:39;;;;;;;9.75;1.70;;;22.60;99.90;;;;;;4216476;28;20080;-89
2023/07/10 08:18:45;;;;;;;4.43;1.30;;;22.60;99.90;;;;;;4216027;28;20100;-89
2023/07/10 08:20:46;;;;;;;12.20;2.13;;;22.70;99.90;;;;;;4216447;28;20032;-89
2023/07/10 08:22:48;;;;;;;6.97;1.73;;;22.70;99.90;;;;;;4218614;28;20194;-90
2023/07/10 08:24:49;;;;;;;6.75;1.83;;;22.90;99.90;;;;;;4236190;28;20051;-89
2023/07/10 08:26:57;;;;;;;5.40;1.50;;;22.80;99.90;;;;;;4218950;28;20065;-90
2023/07/10 08:28:58;;;;;;;6.35;1.52;;;22.90;99.90;;;;;;4216462;28;20135;-90
2023/07/10 08:30:59;;;;;;;11.57;2.47;;;23.10;99.90;;;;;;4198795;28;20053;-90
2023/07/10 08:32:59;;;;;;;8.63;2.00;;;23.20;99.90;;;;;;4216744;28;20508;-89
2023/07/10 08:35:03;;;;;;;5.00;1.58;;;23.40;99.90;;;;;;4216323;28;20062;-89
2023/07/10 08:37:03;;;;;;;9.13;2.22;;;23.50;99.90;;;;;;4232428;28;20506;-87
2023/07/10 08:39:05;;;;;;;5.32;1.55;;;23.40;99.90;;;;;;4230866;28;20051;-88
2023/07/10 08:41:19;;;;;;;5.82;1.30;;;23.30;99.90;;;;;;4248684;28;20054;-87
2023/07/10 08:43:33;;;;;;;6.68;1.55;;;23.60;99.90;;;;;;4232699;28;20445;-87
2023/07/10 08:45:36;;;;;;;8.85;2.42;;;23.60;99.90;;;;;;4233207;28;20044;-87
2023/07/10 08:47:41;;;;;;;6.68;1.42;;;23.70;99.90;;;;;;4231682;28;20559;-87
2023/07/10 08:49:54;;;;;;;5.43;1.60;;;23.90;99.90;;;;;;4247612;28;20494;-88
2023/07/10 08:52:02;;;;;;;6.80;1.98;;;23.90;99.90;;;;;;4230781;28;20427;-87
2023/07/10 08:54:09;;;;;;;5.18;1.35;;;24.10;99.90;;;;;;4237313;28;20055;-86
2023/07/10 08:56:33;;;;;;;9.85;2.13;;;24.10;99.90;;;;;;4222129;28;20059;-87
2023/07/10 08:58:36;;;;;;;10.48;1.63;;;24.10;99.90;;;;;;4220459;28;20055;-87
2023/07/10 09:00:43;;;;;;;8.35;1.85;;;24.20;99.90;;;;;;4219373;28;20073;-87
2023/07/10 09:02:58;;;;;;;5.43;1.60;;;24.20;99.90;;;;;;4219163;28;20071;-87
2023/07/10 09:04:59;;;;;;;8.25;1.70;;;24.20;99.90;;;;;;4200629;28;20408;-86
2023/07/10 09:07:01;;;;;;;7.13;1.40;;;24.20;99.90;;;;;;4207860;28;20033;-87
2023/07/10 09:09:04;;;;;;;4.93;1.40;;;24.30;99.90;;;;;;4212640;28;20036;-87
2023/07/10 09:11:05;;;;;;;7.47;1.35;;;24.60;99.90;;;;;;4220081;28;20043;-86
2023/07/10 09:13:12;;;;;;;5.45;1.95;;;24.70;99.90;;;;;;4206900;28;20048;-86
2023/07/10 09:15:19;;;;;;;9.07;1.75;;;24.60;99.90;;;;;;4215679;28;20075;-86
2023/07/10 09:17:48;;;;;;;7.10;1.55;;;24.50;99.90;;;;;;4225262;28;20070;-86
2023/07/10 09:19:59;;;;;;;4.93;1.55;;;24.30;99.90;;;;;;4219043;28;20472;-86
2023/07/10 09:22:11;;;;;;;11.80;1.70;;;24.30;99.90;;;;;;4234515;28;20505;-87
2023/07/10 09:24:24;;;;;;;6.60;1.50;;;24.40;99.90;;;;;;4243995;28;20066;-87
2023/07/10 09:26:31;;;;;;;5.88;1.42;;;24.60;99.90;;;;;;4231168;28;20048;-87
2023/07/10 09:28:32;;;;;;;12.15;1.98;;;24.80;99.90;;;;;;4231621;28;20047;-86
2023/07/10 09:31:03;;;;;;;6.25;1.50;;;24.80;99.90;;;;;;4233015;28;20112;-86
2023/07/10 09:35:54;;;;;;;5.82;1.60;;;25.20;99.90;;;;;;4230055;28;20086;-86
2023/07/10 09:37:54;;;;;;;6.28;1.38;;;25.00;99.90;;;;;;4233700;28;20043;-85
2023/07/10 09:40:20;;;;;;;5.35;1.42;;;25.10;99.90;;;;;;4245598;28;20047;-87
2023/07/10 09:42:32;;;;;;;6.25;1.27;;;25.10;99.90;;;;;;4231344;28;20047;-88
2023/07/10 09:44:39;;;;;;;4.75;1.13;;;25.30;99.90;;;;;;4246857;28;20054;-88
2023/07/10 09:46:39;;;;;;;8.43;1.20;;;25.70;99.90;;;;;;4239567;28;20043;-87
2023/07/10 09:48:40;;;;;;;6.25;1.67;;;25.90;99.90;;;;;;4223906;28;20070;-87
2023/07/10 09:50:46;;;;;;;7.05;1.80;;;26.00;99.90;;;;;;4223432;28;20123;-88
2023/07/10 09:52:55;;;;;;;6.55;1.27;;;26.20;99.90;;;;;;4223405;28;20055;-88
2023/07/10 09:55:08;;;;;;;8.57;1.65;;;26.50;99.90;;;;;;4229766;28;20040;-87
2023/07/10 09:57:16;;;;;;;6.68;1.80;;;26.70;99.90;;;;;;4231304;28;20052;-88
2023/07/10 09:59:16;;;;;;;7.93;1.60;;;26.60;99.90;;;;;;4228549;28;20048;-87
2023/07/10 10:01:17;;;;;;;8.25;1.65;;;26.40;99.90;;;;;;4236054;28;20077;-88
2023/07/10 10:03:30;;;;;;;5.00;1.25;;;26.40;99.90;;;;;;4227103;28;20028;-87
2023/07/10 10:05:32;;;;;;;8.52;1.60;;;26.40;99.90;;;;;;4228564;28;20048;-87
2023/07/10 10:08:10;;;;;;;4.80;1.60;;;26.60;99.90;;;;;;4217861;28;20044;-88
2023/07/10 10:10:27;;;;;;;7.57;1.33;;;27.00;99.90;;;;;;4214803;28;20169;-86
2023/07/10 10:12:34;;;;;;;6.90;1.70;;;27.00;99.90;;;;;;4206551;28;20098;-87
2023/07/10 10:14:43;;;;;;;3.50;1.20;;;26.60;99.90;;;;;;4226837;28;20028;-87
2023/07/10 10:16:54;;;;;;;7.78;1.50;;;26.60;99.90;;;;;;4217617;28;20043;-87
2023/07/10 10:19:14;;;;;;;6.00;1.45;;;26.40;99.90;;;;;;4184658;28;20128;-89
2023/07/10 10:21:17;;;;;;;10.52;2.80;;;26.00;99.90;;;;;;4212323;28;20048;-88
2023/07/10 10:23:36;;;;;;;8.63;2.08;;;25.90;99.90;;;;;;4205825;28;20052;-85
2023/07/10 10:25:42;;;;;;;12.95;2.25;;;26.00;99.90;;;;;;4203109;28;20125;-86
2023/07/10 10:27:52;;;;;;;7.63;1.42;;;25.80;99.90;;;;;;4211463;28;20040;-86
2023/07/10 10:30:38;;;;;;;12.07;2.67;;;25.70;99.90;;;;;;4212709;28;20466;-87
2023/07/10 10:32:47;;;;;;;6.50;1.77;;;25.50;99.90;;;;;;4204076;28;20068;-86
2023/07/10 10:34:56;;;;;;;6.78;1.80;;;25.50;99.90;;;;;;4210737;28;20041;-86
2023/07/10 10:37:13;;;;;;;9.07;2.47;;;25.60;99.90;;;;;;4204710;28;20055;-86
2023/07/10 10:39:38;;;;;;;9.77;1.73;;;25.50;99.90;;;;;;4207477;28;20126;-86
2023/07/10 10:42:05;;;;;;;8.73;1.52;;;25.40;99.90;;;;;;4213921;28;20128;-87
2023/07/10 10:44:16;;;;;;;7.85;1.70;;;25.20;99.90;;;;;;4207553;28;20507;-87
2023/07/10 10:46:46;;;;;;;7.20;2.35;;;25.20;99.90;;;;;;4208252;28;20089;-88
2023/07/10 10:49:16;;;;;;;8.60;2.33;;;25.20;99.90;;;;;;4204842;28;20496;-87
2023/07/10 10:51:42;;;;;;;5.70;1.67;;;25.20;99.90;;;;;;4196807;28;20052;-87
2023/07/10 10:54:22;;;;;;;6.38;1.55;;;25.50;99.90;;;;;;4209181;28;20054;-88
2023/07/10 10:56:31;;;;;;;4.68;1.70;;;26.00;99.90;;;;;;4200359;28;20495;-87
2023/07/10 10:59:12;;;;;;;10.13;1.63;;;26.30;99.90;;;;;;4210044;28;20060;-87
2023/07/10 11:01:40;;;;;;;9.82;2.03;;;26.20;99.90;;;;;;4212086;28;20433;-87
2023/07/10 11:03:52;;;;;;;4.65;1.27;;;26.40;99.90;;;;;;4204383;28;20052;-84